createdAt,value
2022-11-01T00:00:29.103Z,16.69
2022-11-01T00:02:55.202Z,16.71
2022-11-01T00:05:21.292Z,16.73
2022-11-01T00:07:47.403Z,16.79
2022-11-01T00:10:13.515Z,16.80
2022-11-01T00:12:39.692Z,16.78
2022-11-01T00:15:05.804Z,16.80
2022-11-01T00:17:31.883Z,16.79
2022-11-01T00:19:58.008Z,16.83
2022-11-01T00:22:24.116Z,16.83
2022-11-01T00:24:50.875Z,16.83
2022-11-01T00:27:18.277Z,16.83
2022-11-01T00:29:44.396Z,16.82
2022-11-01T00:32:10.490Z,16.81
2022-11-01T00:34:36.584Z,16.82
2022-11-01T00:37:02.700Z,16.86
2022-11-01T00:39:31.344Z,16.79
2022-11-01T00:41:57.663Z,16.81
2022-11-01T00:44:23.763Z,16.77
2022-11-01T00:46:49.853Z,16.79
2022-11-01T00:49:15.949Z,16.78
2022-11-01T00:51:42.572Z,16.75
2022-11-01T00:54:08.684Z,16.73
2022-11-01T00:56:34.784Z,16.75
2022-11-01T00:59:00.897Z,16.77
2022-11-01T01:01:27.089Z,16.76
2022-11-01T01:03:53.298Z,16.73
2022-11-01T01:06:19.407Z,16.73
2022-11-01T01:08:45.503Z,16.71
2022-11-01T01:11:11.598Z,16.65
2022-11-01T01:13:37.716Z,16.58
2022-11-01T01:16:03.797Z,16.56
2022-11-01T01:18:29.887Z,16.50
2022-11-01T01:20:56.008Z,16.53
2022-11-01T01:23:22.108Z,16.54
2022-11-01T01:25:48.212Z,16.50
2022-11-01T01:28:14.805Z,16.47
2022-11-01T01:30:40.897Z,16.38
2022-11-01T01:33:07.051Z,16.37
2022-11-01T01:35:33.545Z,16.39
2022-11-01T01:37:59.829Z,16.37
2022-11-01T01:40:26.184Z,16.34
2022-11-01T01:42:52.321Z,16.36
2022-11-01T01:45:18.424Z,16.30
2022-11-01T01:47:44.507Z,16.28
2022-11-01T01:50:10.641Z,16.23
2022-11-01T01:52:36.727Z,16.19
2022-11-01T01:55:02.841Z,16.16
2022-11-01T01:57:28.945Z,16.21
2022-11-01T01:59:55.033Z,16.16
2022-11-01T02:02:21.216Z,16.15
2022-11-01T02:04:47.378Z,16.08
2022-11-01T02:07:13.481Z,16.14
2022-11-01T02:09:39.593Z,16.16
2022-11-01T02:12:05.700Z,16.07
2022-11-01T02:14:31.808Z,16.08
2022-11-01T02:16:57.907Z,16.08
2022-11-01T02:19:24.017Z,16.03
2022-11-01T02:21:50.123Z,16.07
2022-11-01T02:24:16.217Z,16.11
2022-11-01T02:26:42.314Z,16.10
2022-11-01T02:29:08.397Z,16.10
2022-11-01T02:31:34.489Z,16.03
2022-11-01T02:34:00.597Z,16.07
2022-11-01T02:36:26.699Z,16.06
2022-11-01T02:38:52.793Z,16.06
2022-11-01T02:41:19.416Z,16.09
2022-11-01T02:43:45.520Z,16.05
2022-11-01T02:46:11.646Z,16.06
2022-11-01T02:48:37.763Z,16.10
2022-11-01T02:51:03.868Z,16.12
2022-11-01T02:53:29.966Z,16.09
2022-11-01T02:55:56.096Z,16.12
2022-11-01T02:58:22.212Z,16.13
2022-11-01T03:00:48.362Z,16.13
2022-11-01T03:03:14.534Z,16.15
2022-11-01T03:05:40.638Z,16.13
2022-11-01T03:08:06.805Z,16.15
2022-11-01T03:10:32.940Z,16.18
2022-11-01T03:12:59.144Z,16.11
2022-11-01T03:15:25.398Z,16.12
2022-11-01T03:17:51.521Z,16.12
2022-11-01T03:20:17.672Z,16.14
2022-11-01T03:22:43.774Z,16.13
2022-11-01T03:25:09.896Z,16.16
2022-11-01T03:27:35.994Z,16.14
2022-11-01T03:30:02.096Z,16.10
2022-11-01T03:32:28.252Z,16.11
2022-11-01T03:34:54.367Z,16.13
2022-11-01T03:37:20.472Z,16.11
2022-11-01T03:39:46.617Z,16.11
2022-11-01T03:42:12.724Z,16.13
2022-11-01T03:44:38.818Z,16.17
2022-11-01T03:47:04.935Z,16.13
2022-11-01T03:49:31.018Z,16.12
2022-11-01T03:51:57.215Z,16.16
2022-11-01T03:54:23.371Z,16.12
2022-11-01T03:56:49.726Z,16.13
2022-11-01T03:59:16.104Z,16.08
2022-11-01T04:01:42.540Z,16.07
2022-11-01T04:04:08.886Z,16.08
2022-11-01T04:06:34.968Z,16.09
2022-11-01T04:09:01.128Z,16.06
2022-11-01T04:11:27.238Z,16.04
2022-11-01T04:13:53.334Z,16.03
2022-11-01T04:16:19.442Z,15.98
2022-11-01T04:18:45.540Z,15.91
2022-11-01T04:21:11.633Z,15.98
2022-11-01T04:23:37.740Z,15.95
2022-11-01T04:26:03.834Z,15.94
2022-11-01T04:28:29.929Z,15.93
2022-11-01T04:30:56.053Z,15.90
2022-11-01T04:33:22.153Z,15.90
2022-11-01T04:35:48.242Z,15.92
2022-11-01T04:38:14.348Z,15.88
2022-11-01T04:40:40.436Z,15.91
2022-11-01T04:43:06.538Z,15.96
2022-11-01T04:45:33.006Z,15.95
2022-11-01T04:47:59.237Z,15.88
2022-11-01T04:50:25.547Z,15.85
2022-11-01T04:52:51.659Z,15.83
2022-11-01T04:55:17.749Z,15.83
2022-11-01T04:57:43.835Z,15.83
2022-11-01T05:00:09.950Z,15.83
2022-11-01T05:02:36.048Z,15.80
2022-11-01T05:05:02.145Z,15.74
2022-11-01T05:07:28.246Z,15.76
2022-11-01T05:09:54.352Z,15.74
2022-11-01T05:12:20.447Z,15.75
2022-11-01T05:14:46.563Z,15.71
2022-11-01T05:17:12.655Z,15.74
2022-11-01T05:19:38.736Z,15.66
2022-11-01T05:22:04.843Z,15.65
2022-11-01T05:24:31.009Z,15.66
2022-11-01T05:26:57.139Z,15.66
2022-11-01T05:29:32.403Z,15.67
2022-11-01T05:31:59.208Z,15.67
2022-11-01T05:34:25.324Z,15.64
2022-11-01T05:36:51.421Z,15.67
2022-11-01T05:39:17.502Z,15.66
2022-11-01T05:41:43.618Z,15.64
2022-11-01T05:44:09.722Z,15.55
2022-11-01T05:46:35.887Z,15.59
2022-11-01T05:49:02.525Z,15.58
2022-11-01T05:51:28.617Z,15.55
2022-11-01T05:53:54.713Z,15.48
2022-11-01T05:56:20.850Z,15.51
2022-11-01T05:58:46.941Z,15.49
2022-11-01T06:01:13.068Z,15.45
2022-11-01T06:03:39.209Z,15.48
2022-11-01T06:06:05.291Z,15.43
2022-11-01T06:08:31.395Z,15.49
2022-11-01T06:10:57.493Z,15.48
2022-11-01T06:13:23.582Z,15.49
2022-11-01T06:15:49.672Z,15.48
2022-11-01T06:18:15.795Z,15.42
2022-11-01T06:20:41.892Z,15.43
2022-11-01T06:23:07.996Z,15.39
2022-11-01T06:25:34.092Z,15.39
2022-11-01T06:28:00.544Z,15.38
2022-11-01T06:30:26.797Z,15.34
2022-11-01T06:32:52.902Z,15.34
2022-11-01T06:35:18.997Z,15.34
2022-11-01T06:37:45.083Z,15.39
2022-11-01T06:40:11.244Z,15.37
2022-11-01T06:42:38.145Z,15.45
2022-11-01T06:45:06.304Z,15.42
2022-11-01T06:47:32.455Z,15.39
2022-11-01T06:49:58.570Z,15.40
2022-11-01T06:52:24.655Z,15.43
2022-11-01T06:54:50.770Z,15.44
2022-11-01T06:57:16.861Z,15.49
2022-11-01T06:59:42.956Z,15.46
2022-11-01T07:02:14.008Z,15.44
2022-11-01T07:04:40.707Z,15.44
2022-11-01T07:07:06.795Z,15.43
2022-11-01T07:09:32.907Z,15.39
2022-11-01T07:11:59.004Z,15.43
2022-11-01T07:14:25.089Z,15.46
2022-11-01T07:16:51.204Z,15.49
2022-11-01T07:19:17.285Z,15.42
2022-11-01T07:21:43.371Z,15.50
2022-11-01T07:24:09.485Z,15.45
2022-11-01T07:26:35.585Z,15.50
2022-11-01T07:29:01.681Z,15.45
2022-11-01T07:31:27.837Z,15.47
2022-11-01T07:33:53.946Z,15.38
2022-11-01T07:36:20.045Z,15.39
2022-11-01T07:38:46.162Z,15.34
2022-11-01T07:41:12.257Z,15.29
2022-11-01T07:43:38.353Z,15.29
2022-11-01T07:46:04.469Z,15.21
2022-11-01T07:48:30.568Z,15.21
2022-11-01T07:50:56.671Z,15.21
2022-11-01T07:53:22.777Z,15.15
2022-11-01T07:55:48.879Z,15.22
2022-11-01T07:58:15.023Z,15.18
2022-11-01T08:00:41.192Z,15.11
2022-11-01T08:03:07.282Z,15.05
2022-11-01T08:05:33.389Z,14.96
2022-11-01T08:07:59.635Z,14.88
2022-11-01T08:10:25.864Z,14.72
2022-11-01T08:12:51.965Z,14.71
2022-11-01T08:15:18.077Z,14.68
2022-11-01T08:17:44.173Z,14.67
2022-11-01T08:20:10.279Z,14.53
2022-11-01T08:22:36.462Z,14.54
2022-11-01T08:25:02.585Z,14.46
2022-11-01T08:27:31.511Z,14.47
2022-11-01T08:30:00.573Z,14.40
2022-11-01T08:32:26.665Z,14.41
2022-11-01T08:34:52.754Z,14.30
2022-11-01T08:37:18.864Z,14.22
2022-11-01T08:39:44.960Z,14.28
2022-11-01T08:42:11.061Z,14.25
2022-11-01T08:44:37.206Z,14.21
2022-11-01T08:47:03.306Z,14.19
2022-11-01T08:49:29.390Z,14.09
2022-11-01T08:51:55.490Z,14.00
2022-11-01T08:54:21.581Z,14.13
2022-11-01T08:56:47.670Z,14.28
2022-11-01T08:59:13.768Z,14.19
2022-11-01T09:01:39.956Z,14.16
2022-11-01T09:04:06.114Z,14.23
2022-11-01T09:06:35.369Z,14.27
2022-11-01T09:09:02.680Z,14.30
2022-11-01T09:11:28.774Z,14.33
2022-11-01T09:13:54.897Z,14.33
2022-11-01T09:16:21.005Z,14.20
2022-11-01T09:18:47.304Z,14.16
2022-11-01T09:21:13.428Z,14.18
2022-11-01T09:23:39.527Z,14.16
2022-11-01T09:26:05.642Z,14.25
2022-11-01T09:28:33.947Z,14.26
2022-11-01T09:31:19.470Z,14.25
2022-11-01T09:33:46.540Z,14.26
2022-11-01T09:36:12.637Z,14.27
2022-11-01T09:38:38.741Z,14.18
2022-11-01T09:41:04.860Z,14.17
2022-11-01T09:43:30.967Z,14.24
2022-11-01T09:45:57.073Z,14.13
2022-11-01T09:48:23.181Z,14.25
2022-11-01T09:50:49.281Z,14.23
2022-11-01T09:53:15.381Z,14.14
2022-11-01T09:55:41.506Z,14.27
2022-11-01T09:58:07.616Z,14.26
2022-11-01T10:00:33.757Z,14.30
2022-11-01T10:03:00.490Z,14.34
2022-11-01T10:05:26.620Z,14.20
2022-11-01T10:07:52.726Z,14.25
2022-11-01T10:10:19.387Z,14.23
2022-11-01T10:12:45.483Z,14.22
2022-11-01T10:15:11.643Z,14.37
2022-11-01T10:17:37.761Z,14.37
2022-11-01T10:20:03.967Z,14.33
2022-11-01T10:22:30.121Z,14.37
2022-11-01T10:24:56.219Z,14.28
2022-11-01T10:27:22.315Z,14.41
2022-11-01T10:29:48.449Z,14.43
2022-11-01T10:32:14.589Z,14.45
2022-11-01T10:34:40.708Z,14.54
2022-11-01T10:37:06.803Z,14.46
2022-11-01T10:42:19.000Z,14.55
2022-11-01T10:44:45.159Z,14.54
2022-11-01T10:47:11.294Z,14.51
2022-11-01T10:52:23.484Z,14.63
2022-11-01T10:54:49.581Z,14.56
2022-11-01T10:57:15.669Z,14.79
2022-11-01T10:59:41.798Z,14.80
2022-11-01T11:02:08.069Z,14.74
2022-11-01T11:04:34.280Z,14.77
2022-11-01T11:07:00.398Z,14.75
2022-11-01T11:09:26.488Z,14.70
2022-11-01T11:11:52.593Z,14.84
2022-11-01T11:14:18.788Z,14.95
2022-11-01T11:16:44.897Z,14.94
2022-11-01T11:19:10.989Z,14.86
2022-11-01T11:21:37.087Z,14.99
2022-11-01T11:24:03.183Z,15.03
2022-11-01T11:26:29.313Z,15.03
2022-11-01T11:28:55.445Z,15.07
2022-11-01T11:31:21.553Z,15.09
2022-11-01T11:33:47.669Z,15.07
2022-11-01T11:36:13.784Z,15.19
2022-11-01T11:38:39.880Z,15.28
2022-11-01T11:41:05.984Z,15.22
2022-11-01T11:43:32.096Z,15.23
2022-11-01T11:45:58.179Z,15.20
2022-11-01T11:48:24.284Z,15.28
2022-11-01T11:50:50.450Z,15.26
2022-11-01T11:53:16.556Z,15.30
2022-11-01T11:55:42.644Z,15.33
2022-11-01T11:58:08.775Z,15.42
2022-11-01T12:00:34.887Z,15.45
2022-11-01T12:03:01.416Z,15.40
2022-11-01T12:05:27.922Z,15.40
2022-11-01T12:07:54.007Z,15.41
2022-11-01T12:10:20.140Z,15.41
2022-11-01T12:12:46.277Z,15.55
2022-11-01T12:15:12.396Z,15.43
2022-11-01T12:17:38.505Z,15.45
2022-11-01T12:20:04.635Z,15.57
2022-11-01T12:22:30.739Z,15.49
2022-11-01T12:24:56.835Z,15.47
2022-11-01T12:27:22.940Z,15.48
2022-11-01T12:29:49.044Z,15.52
2022-11-01T12:32:15.144Z,15.59
2022-11-01T12:34:42.592Z,15.64
2022-11-01T12:37:09.063Z,15.67
2022-11-01T12:39:35.164Z,15.62
2022-11-01T12:42:01.287Z,15.67
2022-11-01T12:44:27.379Z,15.63
2022-11-01T12:46:53.472Z,15.63
2022-11-01T12:49:19.643Z,15.68
2022-11-01T12:51:45.732Z,15.68
2022-11-01T12:54:11.834Z,15.76
2022-11-01T12:56:38.163Z,15.77
2022-11-01T12:59:04.299Z,15.74
2022-11-01T13:01:30.481Z,15.79
2022-11-01T13:03:56.701Z,15.86
2022-11-01T13:06:22.807Z,15.76
2022-11-01T13:08:48.892Z,15.71
2022-11-01T13:11:15.292Z,15.76
2022-11-01T13:13:41.390Z,15.71
2022-11-01T13:16:07.496Z,15.79
2022-11-01T13:18:33.970Z,15.80
2022-11-01T13:21:00.083Z,15.73
2022-11-01T13:23:26.186Z,15.80
2022-11-01T13:25:52.312Z,15.79
2022-11-01T13:28:18.416Z,15.74
2022-11-01T13:30:44.511Z,15.75
2022-11-01T13:33:10.629Z,15.84
2022-11-01T13:35:36.740Z,15.94
2022-11-01T13:38:02.838Z,15.89
2022-11-01T13:40:28.966Z,15.86
2022-11-01T13:42:55.053Z,15.86
2022-11-01T13:45:21.166Z,15.86
2022-11-01T13:47:47.302Z,15.89
2022-11-01T13:50:13.407Z,15.88
2022-11-01T13:52:39.495Z,15.86
2022-11-01T13:55:05.767Z,15.89
2022-11-01T13:57:31.884Z,15.89
2022-11-01T13:59:57.985Z,15.94
2022-11-01T14:02:24.518Z,15.90
2022-11-01T14:04:50.844Z,15.88
2022-11-01T14:07:16.953Z,15.89
2022-11-01T14:09:43.067Z,15.92
2022-11-01T14:12:09.176Z,15.79
2022-11-01T14:14:35.265Z,15.71
2022-11-01T14:17:01.381Z,15.66
2022-11-01T14:19:27.477Z,15.66
2022-11-01T14:21:53.579Z,15.63
2022-11-01T14:24:19.988Z,15.66
2022-11-01T14:26:46.094Z,15.74
2022-11-01T14:29:12.215Z,15.83
2022-11-01T14:31:38.332Z,15.85
2022-11-01T14:34:04.452Z,15.85
2022-11-01T14:36:30.570Z,15.86
2022-11-01T14:38:56.692Z,15.79
2022-11-01T14:41:22.784Z,15.81
2022-11-01T14:43:48.922Z,15.71
2022-11-01T14:46:15.058Z,15.76
2022-11-01T14:48:41.143Z,15.82
2022-11-01T14:51:07.240Z,15.85
2022-11-01T14:53:33.366Z,15.77
2022-11-01T14:55:59.451Z,15.82
2022-11-01T14:58:25.551Z,15.90
2022-11-01T15:00:52.215Z,15.90
2022-11-01T15:03:18.348Z,15.97
2022-11-01T15:05:44.443Z,15.97
2022-11-01T15:08:10.572Z,15.94
2022-11-01T15:10:36.667Z,16.05
2022-11-01T15:13:02.777Z,16.07
2022-11-01T15:15:28.908Z,16.12
2022-11-01T15:17:55.008Z,16.26
2022-11-01T15:20:21.134Z,16.37
2022-11-01T15:22:47.248Z,16.27
2022-11-01T15:25:13.357Z,16.20
2022-11-01T15:27:39.453Z,16.24
2022-11-01T15:30:05.651Z,16.15
2022-11-01T15:32:31.798Z,16.18
2022-11-01T15:34:57.917Z,16.03
2022-11-01T15:37:24.045Z,16.00
2022-11-01T15:39:50.164Z,16.02
2022-11-01T15:42:16.292Z,15.94
2022-11-01T15:44:46.015Z,15.87
2022-11-01T15:47:12.675Z,15.72
2022-11-01T15:49:38.857Z,15.60
2022-11-01T15:52:04.958Z,15.42
2022-11-01T15:54:32.179Z,15.31
2022-11-01T15:56:58.412Z,15.21
2022-11-01T15:59:24.515Z,15.04
2022-11-01T16:01:50.660Z,14.96
2022-11-01T16:04:16.801Z,14.86
2022-11-01T16:06:42.923Z,14.73
2022-11-01T16:09:09.029Z,14.68
2022-11-01T16:11:35.133Z,14.65
2022-11-01T16:14:01.241Z,14.55
2022-11-01T16:16:27.460Z,14.46
2022-11-01T16:18:53.566Z,14.41
2022-11-01T16:21:19.680Z,14.32
2022-11-01T16:23:45.776Z,14.28
2022-11-01T16:26:11.936Z,14.22
2022-11-01T16:28:38.360Z,14.17
2022-11-01T16:31:04.458Z,14.19
2022-11-01T16:33:30.577Z,14.20
2022-11-01T16:35:56.701Z,14.02
2022-11-01T16:38:22.823Z,14.03
2022-11-01T16:40:48.916Z,13.98
2022-11-01T16:43:15.035Z,13.89
2022-11-01T16:45:41.127Z,13.81
2022-11-01T16:48:07.212Z,13.80
2022-11-01T16:50:33.332Z,13.76
2022-11-01T16:52:59.443Z,13.70
2022-11-01T16:55:28.402Z,13.69
2022-11-01T16:57:55.806Z,13.67
2022-11-01T17:00:21.895Z,13.62
2022-11-01T17:02:47.990Z,13.56
2022-11-01T17:05:14.113Z,13.53
2022-11-01T17:07:40.205Z,13.46
2022-11-01T17:10:06.314Z,13.43
2022-11-01T17:12:32.438Z,13.39
2022-11-01T17:14:58.540Z,13.37
2022-11-01T17:17:24.786Z,13.33
2022-11-01T17:19:51.139Z,13.32
2022-11-01T17:22:17.239Z,13.36
2022-11-01T17:24:43.362Z,13.30
2022-11-01T17:27:09.463Z,13.33
2022-11-01T17:29:35.558Z,13.22
2022-11-01T17:32:01.670Z,13.19
2022-11-01T17:34:28.270Z,13.07
2022-11-01T17:36:54.409Z,13.12
2022-11-01T17:39:20.500Z,13.10
2022-11-01T17:41:46.610Z,13.01
2022-11-01T17:44:12.718Z,13.00
2022-11-01T17:46:38.823Z,12.99
2022-11-01T17:49:04.936Z,12.95
2022-11-01T17:51:31.044Z,12.90
2022-11-01T17:53:57.183Z,12.97
2022-11-01T17:56:23.303Z,12.98
2022-11-01T17:58:52.026Z,12.94
2022-11-01T18:01:18.608Z,12.86
2022-11-01T18:03:44.817Z,12.80
2022-11-01T18:06:10.924Z,12.77
2022-11-01T18:08:37.024Z,12.79
2022-11-01T18:11:03.145Z,12.75
2022-11-01T18:13:29.264Z,12.65
2022-11-01T18:15:55.389Z,12.66
2022-11-01T18:18:21.603Z,12.68
2022-11-01T18:20:47.688Z,12.61
2022-11-01T18:23:13.797Z,12.62
2022-11-01T18:25:39.916Z,12.57
2022-11-01T18:28:06.289Z,12.52
2022-11-01T18:30:32.624Z,12.51
2022-11-01T18:32:58.753Z,12.49
2022-11-01T18:35:27.430Z,12.49
2022-11-01T18:37:56.901Z,12.43
2022-11-01T18:40:23.025Z,12.41
2022-11-01T18:42:49.128Z,12.39
2022-11-01T18:45:15.235Z,12.43
2022-11-01T18:47:41.386Z,12.42
2022-11-01T18:50:07.486Z,12.44
2022-11-01T18:52:33.591Z,12.38
2022-11-01T18:54:59.711Z,12.47
2022-11-01T18:57:25.813Z,12.42
2022-11-01T18:59:51.907Z,12.35
2022-11-01T19:02:18.084Z,12.40
2022-11-01T19:04:44.278Z,12.30
2022-11-01T19:07:10.396Z,12.38
2022-11-01T19:09:36.503Z,12.40
2022-11-01T19:12:02.611Z,12.35
2022-11-01T19:14:28.703Z,12.35
2022-11-01T19:16:54.804Z,12.33
2022-11-01T19:19:20.895Z,12.22
2022-11-01T19:21:46.993Z,12.20
2022-11-01T19:24:13.095Z,12.10
2022-11-01T19:26:39.212Z,12.15
2022-11-01T19:29:05.320Z,12.03
2022-11-01T19:31:31.438Z,12.09
2022-11-01T19:33:57.539Z,12.01
2022-11-01T19:36:23.632Z,12.00
2022-11-01T19:38:49.797Z,11.96
2022-11-01T19:41:15.892Z,12.01
2022-11-01T19:43:41.992Z,12.04
2022-11-01T19:46:08.094Z,11.96
2022-11-01T19:48:34.198Z,12.01
2022-11-01T19:51:00.289Z,11.96
2022-11-01T19:53:26.393Z,11.97
2022-11-01T19:55:52.494Z,11.90
2022-11-01T19:58:18.585Z,11.92
2022-11-01T20:00:44.691Z,11.88
2022-11-01T20:03:10.776Z,11.87
2022-11-01T20:05:36.867Z,11.86
2022-11-01T20:08:02.995Z,11.81
2022-11-01T20:10:29.119Z,11.78
2022-11-01T20:12:55.233Z,11.71
2022-11-01T20:15:21.383Z,11.76
2022-11-01T20:17:47.474Z,11.75
2022-11-01T20:20:13.577Z,11.73
2022-11-01T20:22:39.700Z,11.71
2022-11-01T20:25:05.786Z,11.74
2022-11-01T20:27:31.897Z,11.73
2022-11-01T20:29:58.009Z,11.75
2022-11-01T20:32:24.111Z,11.71
2022-11-01T20:34:50.211Z,11.69
2022-11-01T20:37:28.469Z,11.76
2022-11-01T20:39:54.984Z,11.73
2022-11-01T20:42:21.755Z,11.68
2022-11-01T20:44:47.883Z,11.72
2022-11-01T20:47:14.037Z,11.72
2022-11-01T20:49:40.144Z,11.75
2022-11-01T20:52:33.746Z,11.72
2022-11-01T20:54:52.320Z,11.67
2022-11-01T20:57:27.453Z,11.71
2022-11-01T20:59:54.681Z,11.74
2022-11-01T21:02:20.854Z,11.71
2022-11-01T21:04:47.002Z,11.76
2022-11-01T21:07:13.131Z,11.77
2022-11-01T21:09:39.226Z,11.78
2022-11-01T21:12:05.323Z,11.76
2022-11-01T21:14:31.452Z,11.73
2022-11-01T21:16:57.549Z,11.70
2022-11-01T21:19:23.662Z,11.72
2022-11-01T21:21:49.788Z,11.71
2022-11-01T21:24:15.889Z,11.72
2022-11-01T21:26:41.994Z,11.67
2022-11-01T21:29:08.110Z,11.72
2022-11-01T21:31:34.209Z,11.67
2022-11-01T21:34:00.304Z,11.67
2022-11-01T21:36:26.441Z,11.66
2022-11-01T21:38:52.546Z,11.70
2022-11-01T21:41:18.637Z,11.73
2022-11-01T21:43:45.151Z,11.62
2022-11-01T21:46:11.251Z,11.66
2022-11-01T21:48:37.353Z,11.69
2022-11-01T21:51:03.493Z,11.69
2022-11-01T21:53:29.597Z,11.68
2022-11-01T21:55:55.691Z,11.72
2022-11-01T21:58:21.842Z,11.63
2022-11-01T22:00:47.932Z,11.62
2022-11-01T22:03:14.021Z,11.60
2022-11-01T22:05:40.139Z,11.61
2022-11-01T22:08:06.241Z,11.57
2022-11-01T22:10:32.346Z,11.57
2022-11-01T22:13:00.674Z,11.59
2022-11-01T22:15:30.393Z,11.61
2022-11-01T22:17:56.476Z,11.57
2022-11-01T22:20:22.991Z,11.56
2022-11-01T22:22:49.100Z,11.54
2022-11-01T22:25:15.187Z,11.53
2022-11-01T22:27:41.284Z,11.55
2022-11-01T22:30:07.387Z,11.59
2022-11-01T22:32:33.492Z,11.55
2022-11-01T22:34:59.616Z,11.54
2022-11-01T22:37:25.749Z,11.55
2022-11-01T22:39:53.127Z,11.51
2022-11-01T22:42:20.083Z,11.52
2022-11-01T22:44:46.159Z,11.56
2022-11-01T22:47:12.280Z,11.51
2022-11-01T22:49:38.396Z,11.53
2022-11-01T22:52:04.493Z,11.48
2022-11-01T22:54:30.631Z,11.56
2022-11-01T22:56:56.757Z,11.54
2022-11-01T22:59:22.859Z,11.57
2022-11-01T23:01:49.047Z,11.55
2022-11-01T23:04:15.238Z,11.54
2022-11-01T23:06:41.333Z,11.59
2022-11-01T23:09:07.435Z,11.54
2022-11-01T23:11:33.548Z,11.57
2022-11-01T23:13:59.651Z,11.58
2022-11-01T23:16:25.744Z,11.55
2022-11-01T23:18:51.876Z,11.56
2022-11-01T23:21:17.971Z,11.56
2022-11-01T23:23:44.058Z,11.55
2022-11-01T23:26:10.220Z,11.56
2022-11-01T23:28:36.314Z,11.56
2022-11-01T23:31:02.414Z,11.63
2022-11-01T23:33:28.528Z,11.62
2022-11-01T23:35:54.620Z,11.60
2022-11-01T23:38:20.722Z,11.68
2022-11-01T23:40:47.324Z,11.65
2022-11-01T23:43:13.428Z,11.71
2022-11-01T23:45:39.515Z,11.73
2022-11-01T23:48:05.675Z,11.77
2022-11-01T23:50:31.758Z,11.84
2022-11-01T23:52:57.843Z,11.81
2022-11-01T23:55:23.955Z,11.85
2022-11-01T23:57:50.071Z,11.92
